sensor_id;sensor_type;location;lat;lon;timestamp;temperature;humidity
35523;DHT22;61478;50.820;4.330;2023-05-07T00:01:27;17.60;99.90
35523;DHT22;61478;50.820;4.330;2023-05-07T00:03:53;17.50;99.90
35523;DHT22;61478;50.820;4.330;2023-05-07T00:06:19;17.50;99.90
35523;DHT22;61478;50.820;4.330;2023-05-07T00:08:49;17.50;99.90
35523;DHT22;61478;50.820;4.330;2023-05-07T00:11:15;17.60;99.90
35523;DHT22;61478;50.820;4.330;2023-05-07T00:13:44;17.60;99.90
35523;DHT22;61478;50.820;4.330;2023-05-07T00:16:10;17.70;99.90
35523;DHT22;61478;50.820;4.330;2023-05-07T00:18:36;17.70;99.90
35523;DHT22;61478;50.820;4.330;2023-05-07T00:21:02;17.70;99.90
35523;DHT22;61478;50.820;4.330;2023-05-07T00:23:28;17.70;99.90
35523;DHT22;61478;50.820;4.330;2023-05-07T00:25:55;17.80;99.90
35523;DHT22;61478;50.820;4.330;2023-05-07T00:28:21;17.80;99.90
35523;DHT22;61478;50.820;4.330;2023-05-07T00:30:47;17.70;99.90
35523;DHT22;61478;50.820;4.330;2023-05-07T00:33:13;17.70;99.90
35523;DHT22;61478;50.820;4.330;2023-05-07T00:35:39;17.70;99.90
35523;DHT22;61478;50.820;4.330;2023-05-07T00:38:05;17.80;99.90
35523;DHT22;61478;50.820;4.330;2023-05-07T00:40:31;17.70;99.90
35523;DHT22;61478;50.820;4.330;2023-05-07T00:42:57;17.70;99.90
35523;DHT22;61478;50.820;4.330;2023-05-07T00:45:26;17.70;99.90
35523;DHT22;61478;50.820;4.330;2023-05-07T00:47:59;17.70;99.90
35523;DHT22;61478;50.820;4.330;2023-05-07T00:50:28;17.80;99.90
35523;DHT22;61478;50.820;4.330;2023-05-07T00:52:55;17.80;99.90
35523;DHT22;61478;50.820;4.330;2023-05-07T00:55:22;17.70;99.90
35523;DHT22;61478;50.820;4.330;2023-05-07T00:57:49;17.70;99.90
35523;DHT22;61478;50.820;4.330;2023-05-07T01:00:17;17.60;99.90
35523;DHT22;61478;50.820;4.330;2023-05-07T01:02:43;17.50;99.90
35523;DHT22;61478;50.820;4.330;2023-05-07T01:05:11;17.50;99.90
35523;DHT22;61478;50.820;4.330;2023-05-07T01:07:40;17.50;99.90
35523;DHT22;61478;50.820;4.330;2023-05-07T01:10:07;17.50;99.90
35523;DHT22;61478;50.820;4.330;2023-05-07T01:12:34;17.40;99.90
35523;DHT22;61478;50.820;4.330;2023-05-07T01:15:02;17.40;99.90
35523;DHT22;61478;50.820;4.330;2023-05-07T01:17:35;17.30;99.90
35523;DHT22;61478;50.820;4.330;2023-05-07T01:20:05;17.40;99.90
35523;DHT22;61478;50.820;4.330;2023-05-07T01:22:38;17.30;99.90
35523;DHT22;61478;50.820;4.330;2023-05-07T01:25:07;17.20;99.90
35523;DHT22;61478;50.820;4.330;2023-05-07T01:27:34;17.20;99.90
35523;DHT22;61478;50.820;4.330;2023-05-07T01:30:04;17.20;99.90
35523;DHT22;61478;50.820;4.330;2023-05-07T01:32:40;17.30;99.90
35523;DHT22;61478;50.820;4.330;2023-05-07T01:35:10;17.30;99.90
35523;DHT22;61478;50.820;4.330;2023-05-07T01:37:38;17.20;99.90
35523;DHT22;61478;50.820;4.330;2023-05-07T01:40:05;17.30;99.90
35523;DHT22;61478;50.820;4.330;2023-05-07T01:42:33;17.30;99.90
35523;DHT22;61478;50.820;4.330;2023-05-07T01:44:59;17.30;99.90
35523;DHT22;61478;50.820;4.330;2023-05-07T01:47:25;17.30;99.90
35523;DHT22;61478;50.820;4.330;2023-05-07T01:49:52;17.30;99.90
35523;DHT22;61478;50.820;4.330;2023-05-07T01:52:24;17.30;99.90
35523;DHT22;61478;50.820;4.330;2023-05-07T01:54:53;17.30;99.90
35523;DHT22;61478;50.820;4.330;2023-05-07T01:57:29;17.20;99.90
35523;DHT22;61478;50.820;4.330;2023-05-07T01:59:58;17.00;99.90
35523;DHT22;61478;50.820;4.330;2023-05-07T02:02:28;17.00;99.90
35523;DHT22;61478;50.820;4.330;2023-05-07T02:04:58;17.10;99.90
35523;DHT22;61478;50.820;4.330;2023-05-07T02:07:24;17.10;99.90
35523;DHT22;61478;50.820;4.330;2023-05-07T02:09:50;17.10;99.90
35523;DHT22;61478;50.820;4.330;2023-05-07T02:12:22;17.10;99.90
35523;DHT22;61478;50.820;4.330;2023-05-07T02:14:54;17.10;99.90
35523;DHT22;61478;50.820;4.330;2023-05-07T02:17:21;17.10;99.90
35523;DHT22;61478;50.820;4.330;2023-05-07T02:19:47;17.10;99.90
35523;DHT22;61478;50.820;4.330;2023-05-07T02:22:16;17.00;99.90
35523;DHT22;61478;50.820;4.330;2023-05-07T02:24:48;16.70;99.90
35523;DHT22;61478;50.820;4.330;2023-05-07T02:27:14;16.70;99.90
35523;DHT22;61478;50.820;4.330;2023-05-07T02:29:40;16.60;99.90
35523;DHT22;61478;50.820;4.330;2023-05-07T02:32:12;16.50;99.90
35523;DHT22;61478;50.820;4.330;2023-05-07T02:34:38;16.50;99.90
35523;DHT22;61478;50.820;4.330;2023-05-07T02:37:04;16.60;99.90
35523;DHT22;61478;50.820;4.330;2023-05-07T02:39:29;16.70;99.90
35523;DHT22;61478;50.820;4.330;2023-05-07T02:41:55;16.90;99.90
35523;DHT22;61478;50.820;4.330;2023-05-07T02:44:21;17.20;99.90
35523;DHT22;61478;50.820;4.330;2023-05-07T02:46:47;17.20;99.90
35523;DHT22;61478;50.820;4.330;2023-05-07T02:49:16;17.00;99.90
35523;DHT22;61478;50.820;4.330;2023-05-07T02:51:43;17.00;99.90
35523;DHT22;61478;50.820;4.330;2023-05-07T02:54:09;17.10;99.90
35523;DHT22;61478;50.820;4.330;2023-05-07T02:56:41;17.00;99.90
35523;DHT22;61478;50.820;4.330;2023-05-07T02:59:10;17.00;99.90
35523;DHT22;61478;50.820;4.330;2023-05-07T03:01:36;16.90;99.90
35523;DHT22;61478;50.820;4.330;2023-05-07T03:04:02;17.00;99.90
35523;DHT22;61478;50.820;4.330;2023-05-07T03:06:29;16.90;99.90
35523;DHT22;61478;50.820;4.330;2023-05-07T03:08:58;16.90;99.90
35523;DHT22;61478;50.820;4.330;2023-05-07T03:11:27;16.80;99.90
35523;DHT22;61478;50.820;4.330;2023-05-07T03:13:53;16.80;99.90
35523;DHT22;61478;50.820;4.330;2023-05-07T03:16:20;16.80;99.90
35523;DHT22;61478;50.820;4.330;2023-05-07T03:18:47;16.80;99.90
35523;DHT22;61478;50.820;4.330;2023-05-07T03:21:13;16.50;99.90
35523;DHT22;61478;50.820;4.330;2023-05-07T03:23:40;16.40;99.90
35523;DHT22;61478;50.820;4.330;2023-05-07T03:26:09;16.30;99.90
35523;DHT22;61478;50.820;4.330;2023-05-07T03:28:36;16.30;99.90
35523;DHT22;61478;50.820;4.330;2023-05-07T03:31:09;16.30;99.90
35523;DHT22;61478;50.820;4.330;2023-05-07T03:33:55;16.20;99.90
35523;DHT22;61478;50.820;4.330;2023-05-07T03:36:24;16.10;99.90
35523;DHT22;61478;50.820;4.330;2023-05-07T03:38:52;16.00;99.90
35523;DHT22;61478;50.820;4.330;2023-05-07T03:41:18;16.10;99.90
35523;DHT22;61478;50.820;4.330;2023-05-07T03:43:44;16.30;99.90
35523;DHT22;61478;50.820;4.330;2023-05-07T03:46:10;16.60;99.90
35523;DHT22;61478;50.820;4.330;2023-05-07T03:48:36;16.80;99.90
35523;DHT22;61478;50.820;4.330;2023-05-07T03:51:02;17.00;99.90
35523;DHT22;61478;50.820;4.330;2023-05-07T03:53:28;17.10;99.90
35523;DHT22;61478;50.820;4.330;2023-05-07T03:55:54;16.80;99.90
35523;DHT22;61478;50.820;4.330;2023-05-07T03:58:21;16.80;99.90
35523;DHT22;61478;50.820;4.330;2023-05-07T04:00:46;16.90;99.90
35523;DHT22;61478;50.820;4.330;2023-05-07T04:03:13;16.90;99.90
35523;DHT22;61478;50.820;4.330;2023-05-07T04:05:39;16.80;99.90
35523;DHT22;61478;50.820;4.330;2023-05-07T04:08:15;16.70;99.90
35523;DHT22;61478;50.820;4.330;2023-05-07T04:10:44;16.60;99.90
35523;DHT22;61478;50.820;4.330;2023-05-07T04:13:10;16.60;99.90
35523;DHT22;61478;50.820;4.330;2023-05-07T04:15:36;16.80;99.90
35523;DHT22;61478;50.820;4.330;2023-05-07T04:18:02;17.00;99.90
35523;DHT22;61478;50.820;4.330;2023-05-07T04:20:28;17.30;99.90
35523;DHT22;61478;50.820;4.330;2023-05-07T04:22:54;17.50;99.90
35523;DHT22;61478;50.820;4.330;2023-05-07T04:25:21;17.40;99.90
35523;DHT22;61478;50.820;4.330;2023-05-07T04:27:52;17.30;99.90
35523;DHT22;61478;50.820;4.330;2023-05-07T04:30:18;17.30;99.90
35523;DHT22;61478;50.820;4.330;2023-05-07T04:32:44;17.20;99.90
35523;DHT22;61478;50.820;4.330;2023-05-07T04:35:10;17.20;99.90
35523;DHT22;61478;50.820;4.330;2023-05-07T04:37:39;17.10;99.90
35523;DHT22;61478;50.820;4.330;2023-05-07T04:40:06;17.00;99.90
35523;DHT22;61478;50.820;4.330;2023-05-07T04:42:35;16.80;99.90
35523;DHT22;61478;50.820;4.330;2023-05-07T04:45:02;16.80;99.90
35523;DHT22;61478;50.820;4.330;2023-05-07T04:47:28;16.90;99.90
35523;DHT22;61478;50.820;4.330;2023-05-07T04:49:54;16.90;99.90
35523;DHT22;61478;50.820;4.330;2023-05-07T04:52:20;17.00;99.90
35523;DHT22;61478;50.820;4.330;2023-05-07T04:54:46;17.10;99.90
35523;DHT22;61478;50.820;4.330;2023-05-07T04:57:12;17.10;99.90
35523;DHT22;61478;50.820;4.330;2023-05-07T04:59:38;17.00;99.90
35523;DHT22;61478;50.820;4.330;2023-05-07T05:02:04;17.00;99.90
35523;DHT22;61478;50.820;4.330;2023-05-07T05:04:33;17.00;99.90
35523;DHT22;61478;50.820;4.330;2023-05-07T05:07:02;17.20;99.90
35523;DHT22;61478;50.820;4.330;2023-05-07T05:09:31;17.40;99.90
35523;DHT22;61478;50.820;4.330;2023-05-07T05:11:59;17.40;99.90
35523;DHT22;61478;50.820;4.330;2023-05-07T05:14:25;17.30;99.90
35523;DHT22;61478;50.820;4.330;2023-05-07T05:16:51;17.00;99.90
35523;DHT22;61478;50.820;4.330;2023-05-07T05:19:23;16.80;99.90
35523;DHT22;61478;50.820;4.330;2023-05-07T05:21:53;16.60;99.90
35523;DHT22;61478;50.820;4.330;2023-05-07T05:24:22;16.60;99.90
35523;DHT22;61478;50.820;4.330;2023-05-07T05:26:48;16.60;99.90
35523;DHT22;61478;50.820;4.330;2023-05-07T05:29:17;16.80;99.90
35523;DHT22;61478;50.820;4.330;2023-05-07T05:31:47;17.00;99.90
35523;DHT22;61478;50.820;4.330;2023-05-07T05:34:13;17.20;99.90
35523;DHT22;61478;50.820;4.330;2023-05-07T05:36:43;17.10;99.90
35523;DHT22;61478;50.820;4.330;2023-05-07T05:39:12;17.00;99.90
35523;DHT22;61478;50.820;4.330;2023-05-07T05:41:39;16.80;99.90
35523;DHT22;61478;50.820;4.330;2023-05-07T05:44:06;16.80;99.90
35523;DHT22;61478;50.820;4.330;2023-05-07T05:46:38;16.80;99.90
35523;DHT22;61478;50.820;4.330;2023-05-07T05:49:07;16.80;99.90
35523;DHT22;61478;50.820;4.330;2023-05-07T05:51:39;16.60;99.90
35523;DHT22;61478;50.820;4.330;2023-05-07T05:54:09;16.30;99.90
35523;DHT22;61478;50.820;4.330;2023-05-07T05:56:38;16.30;99.90
35523;DHT22;61478;50.820;4.330;2023-05-07T05:59:04;16.30;99.90
35523;DHT22;61478;50.820;4.330;2023-05-07T06:01:33;16.30;99.90
35523;DHT22;61478;50.820;4.330;2023-05-07T06:04:04;16.30;99.90
35523;DHT22;61478;50.820;4.330;2023-05-07T06:06:33;16.20;99.90
35523;DHT22;61478;50.820;4.330;2023-05-07T06:08:59;16.20;99.90
35523;DHT22;61478;50.820;4.330;2023-05-07T06:11:29;16.20;99.90
35523;DHT22;61478;50.820;4.330;2023-05-07T06:13:55;16.20;99.90
35523;DHT22;61478;50.820;4.330;2023-05-07T06:16:21;16.20;99.90
35523;DHT22;61478;50.820;4.330;2023-05-07T06:18:48;16.10;99.90
35523;DHT22;61478;50.820;4.330;2023-05-07T06:21:17;16.10;99.90
35523;DHT22;61478;50.820;4.330;2023-05-07T06:23:46;16.20;99.90
35523;DHT22;61478;50.820;4.330;2023-05-07T06:26:12;16.20;99.90
35523;DHT22;61478;50.820;4.330;2023-05-07T06:28:38;16.10;99.90
35523;DHT22;61478;50.820;4.330;2023-05-07T06:31:16;16.00;99.90
35523;DHT22;61478;50.820;4.330;2023-05-07T06:33:46;16.00;99.90
35523;DHT22;61478;50.820;4.330;2023-05-07T06:36:12;16.10;99.90
35523;DHT22;61478;50.820;4.330;2023-05-07T06:38:39;16.10;99.90
35523;DHT22;61478;50.820;4.330;2023-05-07T06:41:06;16.10;99.90
35523;DHT22;61478;50.820;4.330;2023-05-07T06:43:38;16.20;99.90
35523;DHT22;61478;50.820;4.330;2023-05-07T06:46:06;16.20;99.90
35523;DHT22;61478;50.820;4.330;2023-05-07T06:48:32;16.20;99.90
35523;DHT22;61478;50.820;4.330;2023-05-07T06:50:58;16.20;99.90
35523;DHT22;61478;50.820;4.330;2023-05-07T06:53:25;16.20;99.90
35523;DHT22;61478;50.820;4.330;2023-05-07T06:55:51;16.20;99.90
35523;DHT22;61478;50.820;4.330;2023-05-07T06:58:17;16.20;99.90
35523;DHT22;61478;50.820;4.330;2023-05-07T07:00:43;16.10;99.90
35523;DHT22;61478;50.820;4.330;2023-05-07T07:03:09;16.20;99.90
35523;DHT22;61478;50.820;4.330;2023-05-07T07:05:36;16.30;99.90
35523;DHT22;61478;50.820;4.330;2023-05-07T07:08:02;16.30;99.90
35523;DHT22;61478;50.820;4.330;2023-05-07T07:10:30;16.30;99.90
35523;DHT22;61478;50.820;4.330;2023-05-07T07:12:56;16.30;99.90
35523;DHT22;61478;50.820;4.330;2023-05-07T07:15:23;16.30;99.90
35523;DHT22;61478;50.820;4.330;2023-05-07T07:17:51;16.40;99.90
35523;DHT22;61478;50.820;4.330;2023-05-07T07:20:20;16.40;99.90
35523;DHT22;61478;50.820;4.330;2023-05-07T07:22:46;16.40;99.90
35523;DHT22;61478;50.820;4.330;2023-05-07T07:25:11;16.40;99.90
35523;DHT22;61478;50.820;4.330;2023-05-07T07:27:37;16.40;99.90
35523;DHT22;61478;50.820;4.330;2023-05-07T07:30:06;16.30;99.90
35523;DHT22;61478;50.820;4.330;2023-05-07T07:32:37;16.30;99.90
35523;DHT22;61478;50.820;4.330;2023-05-07T07:35:04;16.30;99.90
35523;DHT22;61478;50.820;4.330;2023-05-07T07:37:30;16.40;99.90
35523;DHT22;61478;50.820;4.330;2023-05-07T07:39:56;16.50;99.90
35523;DHT22;61478;50.820;4.330;2023-05-07T07:42:23;16.50;99.90
35523;DHT22;61478;50.820;4.330;2023-05-07T07:44:49;16.50;99.90
35523;DHT22;61478;50.820;4.330;2023-05-07T07:47:15;16.50;99.90
35523;DHT22;61478;50.820;4.330;2023-05-07T07:49:40;16.50;99.90
35523;DHT22;61478;50.820;4.330;2023-05-07T07:52:07;16.50;99.90
35523;DHT22;61478;50.820;4.330;2023-05-07T07:54:32;16.50;99.90
35523;DHT22;61478;50.820;4.330;2023-05-07T07:56:58;16.50;99.90
35523;DHT22;61478;50.820;4.330;2023-05-07T07:59:25;16.50;99.90
35523;DHT22;61478;50.820;4.330;2023-05-07T08:01:51;16.50;99.90
35523;DHT22;61478;50.820;4.330;2023-05-07T08:04:17;16.40;99.90
35523;DHT22;61478;50.820;4.330;2023-05-07T08:06:43;16.50;99.90
35523;DHT22;61478;50.820;4.330;2023-05-07T08:09:12;16.40;99.90
35523;DHT22;61478;50.820;4.330;2023-05-07T08:11:38;16.50;99.90
35523;DHT22;61478;50.820;4.330;2023-05-07T08:14:04;16.40;99.90
35523;DHT22;61478;50.820;4.330;2023-05-07T08:16:30;16.50;99.90
35523;DHT22;61478;50.820;4.330;2023-05-07T08:18:56;16.60;99.90
35523;DHT22;61478;50.820;4.330;2023-05-07T08:21:23;16.60;99.90
35523;DHT22;61478;50.820;4.330;2023-05-07T08:23:49;16.50;99.90
35523;DHT22;61478;50.820;4.330;2023-05-07T08:26:15;16.60;99.90
35523;DHT22;61478;50.820;4.330;2023-05-07T08:28:41;16.60;99.90
35523;DHT22;61478;50.820;4.330;2023-05-07T08:31:07;16.70;99.90
35523;DHT22;61478;50.820;4.330;2023-05-07T08:33:32;16.80;99.90
35523;DHT22;61478;50.820;4.330;2023-05-07T08:35:58;16.80;99.90
35523;DHT22;61478;50.820;4.330;2023-05-07T08:38:24;16.90;99.90
35523;DHT22;61478;50.820;4.330;2023-05-07T08:40:50;17.00;99.90
35523;DHT22;61478;50.820;4.330;2023-05-07T08:43:17;17.00;99.90
35523;DHT22;61478;50.820;4.330;2023-05-07T08:45:45;17.20;99.90
35523;DHT22;61478;50.820;4.330;2023-05-07T08:48:17;17.40;99.90
35523;DHT22;61478;50.820;4.330;2023-05-07T08:50:43;17.60;99.90
35523;DHT22;61478;50.820;4.330;2023-05-07T08:53:09;17.70;99.90
35523;DHT22;61478;50.820;4.330;2023-05-07T08:55:35;17.80;99.90
35523;DHT22;61478;50.820;4.330;2023-05-07T08:58:01;17.60;99.90
35523;DHT22;61478;50.820;4.330;2023-05-07T09:00:27;17.40;99.90
35523;DHT22;61478;50.820;4.330;2023-05-07T09:02:53;17.50;99.90
35523;DHT22;61478;50.820;4.330;2023-05-07T09:05:19;17.50;99.90
35523;DHT22;61478;50.820;4.330;2023-05-07T09:07:46;17.50;99.90
35523;DHT22;61478;50.820;4.330;2023-05-07T09:10:12;17.50;99.90
35523;DHT22;61478;50.820;4.330;2023-05-07T09:12:39;17.60;99.90
35523;DHT22;61478;50.820;4.330;2023-05-07T09:15:06;17.70;99.90
35523;DHT22;61478;50.820;4.330;2023-05-07T09:17:32;17.70;99.90
35523;DHT22;61478;50.820;4.330;2023-05-07T09:20:05;17.60;99.90
35523;DHT22;61478;50.820;4.330;2023-05-07T09:22:32;17.70;99.90
35523;DHT22;61478;50.820;4.330;2023-05-07T09:24:59;17.80;99.90
35523;DHT22;61478;50.820;4.330;2023-05-07T09:27:25;17.90;99.90
35523;DHT22;61478;50.820;4.330;2023-05-07T09:29:52;17.90;99.90
35523;DHT22;61478;50.820;4.330;2023-05-07T09:32:17;18.10;99.90
35523;DHT22;61478;50.820;4.330;2023-05-07T09:34:44;18.00;99.90
35523;DHT22;61478;50.820;4.330;2023-05-07T09:37:12;18.10;99.90
35523;DHT22;61478;50.820;4.330;2023-05-07T09:39:42;18.10;99.90
35523;DHT22;61478;50.820;4.330;2023-05-07T09:42:09;18.20;99.90
35523;DHT22;61478;50.820;4.330;2023-05-07T09:44:45;18.20;99.90
35523;DHT22;61478;50.820;4.330;2023-05-07T09:47:11;18.10;99.90
35523;DHT22;61478;50.820;4.330;2023-05-07T09:49:47;18.20;99.90
35523;DHT22;61478;50.820;4.330;2023-05-07T09:52:14;18.10;99.90
35523;DHT22;61478;50.820;4.330;2023-05-07T09:54:40;18.10;99.90
35523;DHT22;61478;50.820;4.330;2023-05-07T09:57:11;18.20;99.90
35523;DHT22;61478;50.820;4.330;2023-05-07T09:59:42;18.20;99.90
35523;DHT22;61478;50.820;4.330;2023-05-07T10:02:09;18.20;99.90
35523;DHT22;61478;50.820;4.330;2023-05-07T10:04:36;18.10;99.90
35523;DHT22;61478;50.820;4.330;2023-05-07T10:07:03;17.90;99.90
35523;DHT22;61478;50.820;4.330;2023-05-07T10:09:31;17.70;99.90
35523;DHT22;61478;50.820;4.330;2023-05-07T10:11:58;17.70;99.90
35523;DHT22;61478;50.820;4.330;2023-05-07T10:14:25;17.70;99.90
35523;DHT22;61478;50.820;4.330;2023-05-07T10:16:53;17.70;99.90
35523;DHT22;61478;50.820;4.330;2023-05-07T10:19:20;17.80;99.90
35523;DHT22;61478;50.820;4.330;2023-05-07T10:21:55;17.90;99.90
35523;DHT22;61478;50.820;4.330;2023-05-07T10:24:26;17.90;99.90
35523;DHT22;61478;50.820;4.330;2023-05-07T10:26:55;17.90;99.90
35523;DHT22;61478;50.820;4.330;2023-05-07T10:29:30;17.80;99.90
35523;DHT22;61478;50.820;4.330;2023-05-07T10:31:59;17.80;99.90
35523;DHT22;61478;50.820;4.330;2023-05-07T10:34:34;17.90;99.90
35523;DHT22;61478;50.820;4.330;2023-05-07T10:37:02;18.10;99.90
35523;DHT22;61478;50.820;4.330;2023-05-07T10:39:29;18.10;99.90
35523;DHT22;61478;50.820;4.330;2023-05-07T10:41:55;18.20;99.90
35523;DHT22;61478;50.820;4.330;2023-05-07T10:44:28;18.10;99.90
35523;DHT22;61478;50.820;4.330;2023-05-07T10:47:09;17.90;99.90
35523;DHT22;61478;50.820;4.330;2023-05-07T10:49:43;18.00;99.90
35523;DHT22;61478;50.820;4.330;2023-05-07T10:52:23;18.10;99.90
35523;DHT22;61478;50.820;4.330;2023-05-07T10:57:43;18.40;99.90
35523;DHT22;61478;50.820;4.330;2023-05-07T11:05:37;18.40;99.90
35523;DHT22;61478;50.820;4.330;2023-05-07T11:08:04;18.40;99.90
35523;DHT22;61478;50.820;4.330;2023-05-07T11:10:57;18.30;99.90
35523;DHT22;61478;50.820;4.330;2023-05-07T11:13:57;18.10;99.90
35523;DHT22;61478;50.820;4.330;2023-05-07T11:16:24;18.20;99.90
35523;DHT22;61478;50.820;4.330;2023-05-07T11:18:55;18.20;99.90
35523;DHT22;61478;50.820;4.330;2023-05-07T11:21:41;18.30;99.90
35523;DHT22;61478;50.820;4.330;2023-05-07T11:24:10;18.20;99.90
35523;DHT22;61478;50.820;4.330;2023-05-07T11:26:49;18.30;99.90
35523;DHT22;61478;50.820;4.330;2023-05-07T11:29:16;18.40;99.90
35523;DHT22;61478;50.820;4.330;2023-05-07T11:31:42;18.20;99.90
35523;DHT22;61478;50.820;4.330;2023-05-07T11:34:08;18.10;99.90
35523;DHT22;61478;50.820;4.330;2023-05-07T11:36:36;18.20;99.90
35523;DHT22;61478;50.820;4.330;2023-05-07T11:39:23;18.30;99.90
35523;DHT22;61478;50.820;4.330;2023-05-07T11:41:49;18.30;99.90
35523;DHT22;61478;50.820;4.330;2023-05-07T11:44:15;18.40;99.90
35523;DHT22;61478;50.820;4.330;2023-05-07T11:46:43;18.30;99.90
35523;DHT22;61478;50.820;4.330;2023-05-07T11:49:10;18.20;99.90
35523;DHT22;61478;50.820;4.330;2023-05-07T11:51:36;18.30;99.90
35523;DHT22;61478;50.820;4.330;2023-05-07T11:54:03;18.30;99.90
35523;DHT22;61478;50.820;4.330;2023-05-07T11:56:34;18.20;99.90
35523;DHT22;61478;50.820;4.330;2023-05-07T11:59:01;18.20;99.90
35523;DHT22;61478;50.820;4.330;2023-05-07T12:01:27;18.40;99.90
35523;DHT22;61478;50.820;4.330;2023-05-07T12:03:52;18.60;99.90
35523;DHT22;61478;50.820;4.330;2023-05-07T12:06:18;18.40;99.90
35523;DHT22;61478;50.820;4.330;2023-05-07T12:08:45;18.40;99.90
35523;DHT22;61478;50.820;4.330;2023-05-07T12:11:21;18.50;99.90
35523;DHT22;61478;50.820;4.330;2023-05-07T12:13:49;18.50;99.90
35523;DHT22;61478;50.820;4.330;2023-05-07T12:16:14;18.50;99.90
35523;DHT22;61478;50.820;4.330;2023-05-07T12:18:41;18.60;99.90
35523;DHT22;61478;50.820;4.330;2023-05-07T12:21:07;18.50;99.90
35523;DHT22;61478;50.820;4.330;2023-05-07T12:23:34;18.50;99.90
35523;DHT22;61478;50.820;4.330;2023-05-07T12:26:01;18.60;99.90
35523;DHT22;61478;50.820;4.330;2023-05-07T12:28:28;18.70;99.90
35523;DHT22;61478;50.820;4.330;2023-05-07T12:30:54;18.70;99.90
35523;DHT22;61478;50.820;4.330;2023-05-07T12:33:24;18.70;99.90
35523;DHT22;61478;50.820;4.330;2023-05-07T12:35:50;18.70;99.90
35523;DHT22;61478;50.820;4.330;2023-05-07T12:38:18;18.60;99.90
35523;DHT22;61478;50.820;4.330;2023-05-07T12:40:54;18.60;99.90
35523;DHT22;61478;50.820;4.330;2023-05-07T12:43:24;18.50;99.90
35523;DHT22;61478;50.820;4.330;2023-05-07T12:45:55;18.60;99.90
35523;DHT22;61478;50.820;4.330;2023-05-07T12:48:21;18.70;99.90
35523;DHT22;61478;50.820;4.330;2023-05-07T12:50:52;18.70;99.90
35523;DHT22;61478;50.820;4.330;2023-05-07T12:53:21;18.80;99.90
35523;DHT22;61478;50.820;4.330;2023-05-07T12:55:49;18.80;99.90
35523;DHT22;61478;50.820;4.330;2023-05-07T12:58:43;18.70;99.90
35523;DHT22;61478;50.820;4.330;2023-05-07T13:01:09;18.80;99.90
35523;DHT22;61478;50.820;4.330;2023-05-07T13:03:38;18.80;99.90
35523;DHT22;61478;50.820;4.330;2023-05-07T13:06:08;18.70;99.90
35523;DHT22;61478;50.820;4.330;2023-05-07T13:08:39;18.80;99.90
35523;DHT22;61478;50.820;4.330;2023-05-07T13:11:08;18.80;99.90
35523;DHT22;61478;50.820;4.330;2023-05-07T13:13:35;18.70;99.90
35523;DHT22;61478;50.820;4.330;2023-05-07T13:16:09;18.70;99.90
35523;DHT22;61478;50.820;4.330;2023-05-07T13:18:37;18.80;99.90
35523;DHT22;61478;50.820;4.330;2023-05-07T13:21:03;18.90;99.90
35523;DHT22;61478;50.820;4.330;2023-05-07T13:23:29;19.00;99.90
35523;DHT22;61478;50.820;4.330;2023-05-07T13:25:56;19.00;99.90
35523;DHT22;61478;50.820;4.330;2023-05-07T13:28:23;19.20;99.90
35523;DHT22;61478;50.820;4.330;2023-05-07T13:30:49;19.20;99.90
35523;DHT22;61478;50.820;4.330;2023-05-07T13:33:23;19.00;99.90
35523;DHT22;61478;50.820;4.330;2023-05-07T13:35:49;18.80;99.90
35523;DHT22;61478;50.820;4.330;2023-05-07T13:38:15;19.00;99.90
35523;DHT22;61478;50.820;4.330;2023-05-07T13:40:41;18.90;99.90
35523;DHT22;61478;50.820;4.330;2023-05-07T13:43:07;19.00;99.90
35523;DHT22;61478;50.820;4.330;2023-05-07T13:45:34;18.80;99.90
35523;DHT22;61478;50.820;4.330;2023-05-07T13:48:00;18.60;99.90
35523;DHT22;61478;50.820;4.330;2023-05-07T13:50:26;18.60;99.90
35523;DHT22;61478;50.820;4.330;2023-05-07T13:52:55;18.70;99.90
35523;DHT22;61478;50.820;4.330;2023-05-07T13:55:23;18.70;99.90
35523;DHT22;61478;50.820;4.330;2023-05-07T13:58:01;18.70;99.90
35523;DHT22;61478;50.820;4.330;2023-05-07T14:00:29;18.60;99.90
35523;DHT22;61478;50.820;4.330;2023-05-07T14:02:55;18.60;99.90
35523;DHT22;61478;50.820;4.330;2023-05-07T14:05:21;18.50;99.90
35523;DHT22;61478;50.820;4.330;2023-05-07T14:07:54;18.50;99.90
35523;DHT22;61478;50.820;4.330;2023-05-07T14:10:22;18.50;99.90
35523;DHT22;61478;50.820;4.330;2023-05-07T14:12:48;18.40;99.90
35523;DHT22;61478;50.820;4.330;2023-05-07T14:15:14;18.50;99.90
35523;DHT22;61478;50.820;4.330;2023-05-07T14:17:40;18.70;99.90
35523;DHT22;61478;50.820;4.330;2023-05-07T14:20:06;18.80;99.90
35523;DHT22;61478;50.820;4.330;2023-05-07T14:22:32;18.70;99.90
35523;DHT22;61478;50.820;4.330;2023-05-07T14:24:58;18.80;99.90
35523;DHT22;61478;50.820;4.330;2023-05-07T14:27:24;18.90;99.90
35523;DHT22;61478;50.820;4.330;2023-05-07T14:29:50;19.10;99.90
35523;DHT22;61478;50.820;4.330;2023-05-07T14:32:20;19.30;99.90
35523;DHT22;61478;50.820;4.330;2023-05-07T14:34:46;19.30;99.90
35523;DHT22;61478;50.820;4.330;2023-05-07T14:37:12;19.40;99.90
35523;DHT22;61478;50.820;4.330;2023-05-07T14:39:38;19.30;99.90
35523;DHT22;61478;50.820;4.330;2023-05-07T14:42:04;19.30;99.90
35523;DHT22;61478;50.820;4.330;2023-05-07T14:44:30;19.20;99.90
35523;DHT22;61478;50.820;4.330;2023-05-07T14:46:56;19.30;99.90
35523;DHT22;61478;50.820;4.330;2023-05-07T14:49:22;19.40;99.90
35523;DHT22;61478;50.820;4.330;2023-05-07T14:51:49;19.50;99.90
35523;DHT22;61478;50.820;4.330;2023-05-07T14:54:15;19.50;99.90
35523;DHT22;61478;50.820;4.330;2023-05-07T14:56:41;19.60;99.90
35523;DHT22;61478;50.820;4.330;2023-05-07T14:59:08;19.40;99.90
35523;DHT22;61478;50.820;4.330;2023-05-07T15:01:36;19.40;99.90
35523;DHT22;61478;50.820;4.330;2023-05-07T15:04:03;19.50;99.90
35523;DHT22;61478;50.820;4.330;2023-05-07T15:06:30;19.40;99.90
35523;DHT22;61478;50.820;4.330;2023-05-07T15:08:56;19.50;99.90
35523;DHT22;61478;50.820;4.330;2023-05-07T15:11:22;19.40;99.90
35523;DHT22;61478;50.820;4.330;2023-05-07T15:13:49;19.40;99.90
35523;DHT22;61478;50.820;4.330;2023-05-07T15:16:15;19.40;99.90
35523;DHT22;61478;50.820;4.330;2023-05-07T15:18:41;19.60;99.90
35523;DHT22;61478;50.820;4.330;2023-05-07T15:21:06;19.60;99.90
35523;DHT22;61478;50.820;4.330;2023-05-07T15:23:32;19.50;99.90
35523;DHT22;61478;50.820;4.330;2023-05-07T15:25:58;19.30;99.90
35523;DHT22;61478;50.820;4.330;2023-05-07T15:28:27;19.40;99.90
35523;DHT22;61478;50.820;4.330;2023-05-07T15:30:54;19.50;99.90
35523;DHT22;61478;50.820;4.330;2023-05-07T15:33:20;19.50;99.90
35523;DHT22;61478;50.820;4.330;2023-05-07T15:35:46;19.40;99.90
35523;DHT22;61478;50.820;4.330;2023-05-07T15:38:12;19.30;99.90
35523;DHT22;61478;50.820;4.330;2023-05-07T15:40:39;19.40;99.90
35523;DHT22;61478;50.820;4.330;2023-05-07T15:43:08;19.40;99.90